Paul, Nebraska
Current Conditions -  °F | °C
As of 12:55 AM on Thursday 27 Nov 2014 (Local Time) from KAFK Reporting Station
Overcast Overcast  
Wind Chill: 14°   Ceiling: 1300
Heat Index: 23°   Visibility: 10mi
Dew Point: 17°   Wind: 8mph
Humidity: 76%   Direction: 330°NNW
Pressure: 30.47"   Gusts: NA
Location:  40.6534°N, 95.8738°W
Report Text: KAFK 270655Z AUTO 33007KT 10SM OVC013 M05/M09 A3047 RMK AO2 T10501086
Loading
Personal Weather Stations






























Interactive Weather Map New forecast layout! Learn more

10-Day Weather Forecast

Advertisements
Track Severe Weather on mobile